Time;durP1;ratioP1;P1;durP2;ratioP2;P2;SDS_P1;SDS_P2;PMS_P1;PMS_P2;Temp;Humidity;BMP_temperature;BMP_pressure;BME280_temperature;BME280_humidity;BME280_pressure;Samples;Min_cycle;Max_cycle;Signal;HPM_P1;HPM_P2
2022/02/11 00:22:24;;;;;;;12.75;10.63;;;;;;;;;;4202589;34;20144;-63
2022/02/11 00:24:52;;;;;;;11.32;10.18;;;;;;;;;;4204882;34;20117;-63
2022/02/11 00:32:43;;;;;;;12.13;10.85;;;;;;;;;;4190947;34;20185;-62
2022/02/11 00:35:27;;;;;;;11.85;10.52;;;;;;;;;;4191094;34;20201;-68
2022/02/11 00:37:54;;;;;;;13.10;11.32;;;;;;;;;;4191113;34;20599;-67
2022/02/11 01:02:09;;;;;;;13.07;11.57;;;;;;;;;;4190974;34;20504;-62
2022/02/11 01:04:15;;;;;;;11.07;9.95;;;;;;;;;;4190941;34;20106;-63
2022/02/11 01:06:42;;;;;;;12.20;11.00;;;;;;;;;;4190810;34;20107;-62
2022/02/11 01:09:12;;;;;;;13.32;11.18;;;;;;;;;;4190779;34;20467;-61
2022/02/11 01:14:11;;;;;;;11.82;10.63;;;;;;;;;;4190933;34;20121;-60
2022/02/11 01:16:51;;;;;;;12.65;11.35;;;;;;;;;;4190837;34;20241;-61
2022/02/11 01:22:06;;;;;;;12.73;11.43;;;;;;;;;;4190273;34;20218;-61
2022/02/11 01:27:24;;;;;;;12.43;11.12;;;;;;;;;;4190688;34;20534;-61
2022/02/11 01:30:23;;;;;;;13.52;12.13;;;;;;;;;;4190644;34;20100;-61
2022/02/11 01:57:01;;;;;;;12.65;11.30;;;;;;;;;;4187919;34;20151;-61
2022/02/11 02:37:10;;;;;;;14.02;12.52;;;;;;;;;;4205367;34;20554;-63
2022/02/11 02:56:38;;;;;;;14.93;12.37;;;;;;;;;;4191302;34;20102;-60
2022/02/11 03:02:07;;;;;;;13.70;12.00;;;;;;;;;;4189933;34;20122;-65
2022/02/11 03:16:30;;;;;;;16.20;13.27;;;;;;;;;;4190902;34;20166;-62
2022/02/11 04:56:04;;;;;;;16.27;12.40;;;;;;;;;;4191242;34;20122;-62
2022/02/11 05:01:15;;;;;;;14.10;12.30;;;;;;;;;;4190772;34;20141;-62
2022/02/11 05:03:41;;;;;;;15.13;12.43;;;;;;;;;;4190870;34;20144;-70
2022/02/11 05:06:08;;;;;;;14.23;11.95;;;;;;;;;;4190883;34;20121;-71
2022/02/11 05:08:34;;;;;;;14.43;12.90;;;;;;;;;;4190794;34;20122;-72
2022/02/11 05:11:00;;;;;;;15.50;12.82;;;;;;;;;;4190670;34;20205;-69
2022/02/11 05:13:26;;;;;;;14.45;12.37;;;;;;;;;;4191062;34;20106;-69
2022/02/11 05:15:52;;;;;;;14.77;12.93;;;;;;;;;;4190648;34;20221;-69
2022/02/11 05:18:18;;;;;;;13.80;12.37;;;;;;;;;;4201017;34;20210;-68
2022/02/11 05:20:44;;;;;;;14.23;12.73;;;;;;;;;;4190769;34;20132;-68
2022/02/11 05:23:12;;;;;;;15.20;13.05;;;;;;;;;;4190685;34;20114;-68
2022/02/11 05:25:39;;;;;;;15.18;12.13;;;;;;;;;;4190854;34;20113;-66
2022/02/11 05:28:06;;;;;;;14.02;11.80;;;;;;;;;;4177773;34;20653;-69
2022/02/11 05:30:33;;;;;;;15.32;12.90;;;;;;;;;;4200423;34;20586;-68
2022/02/11 05:33:03;;;;;;;14.57;12.60;;;;;;;;;;4200386;34;20621;-69
2022/02/11 05:35:29;;;;;;;14.38;12.32;;;;;;;;;;4200618;34;20121;-68
2022/02/11 05:37:56;;;;;;;14.10;12.18;;;;;;;;;;4200419;34;20459;-68
2022/02/11 05:40:22;;;;;;;13.95;12.45;;;;;;;;;;4190160;34;20113;-69
2022/02/11 05:42:48;;;;;;;14.90;12.30;;;;;;;;;;4190329;34;20547;-68
2022/02/11 05:45:14;;;;;;;12.88;11.43;;;;;;;;;;4190448;34;20125;-69
2022/02/11 05:47:40;;;;;;;13.80;12.10;;;;;;;;;;4190346;34;20122;-68
2022/02/11 05:50:07;;;;;;;15.27;11.95;;;;;;;;;;4200174;34;20629;-68
2022/02/11 05:52:34;;;;;;;15.40;12.18;;;;;;;;;;4200397;34;20282;-68
2022/02/11 05:55:00;;;;;;;16.27;12.18;;;;;;;;;;4190121;34;20136;-68
2022/02/11 05:57:27;;;;;;;13.95;11.63;;;;;;;;;;4190447;34;20126;-68
2022/02/11 05:59:56;;;;;;;14.00;11.77;;;;;;;;;;4189652;34;20106;-68
2022/02/11 06:02:22;;;;;;;14.35;12.18;;;;;;;;;;4177996;34;20105;-68
2022/02/11 06:04:48;;;;;;;14.65;12.95;;;;;;;;;;4200433;34;20126;-69
2022/02/11 06:07:15;;;;;;;14.48;12.82;;;;;;;;;;4190214;34;20106;-69
2022/02/11 06:09:41;;;;;;;13.70;12.13;;;;;;;;;;4190043;34;20122;-69
2022/02/11 06:12:08;;;;;;;13.48;12.07;;;;;;;;;;4192177;34;20466;-69
2022/02/11 06:14:36;;;;;;;14.60;13.00;;;;;;;;;;4179502;34;20205;-68
2022/02/11 06:17:03;;;;;;;14.68;12.63;;;;;;;;;;4179985;34;20124;-69
2022/02/11 06:19:29;;;;;;;13.65;11.93;;;;;;;;;;4192247;34;20508;-69
2022/02/11 06:21:55;;;;;;;13.43;11.95;;;;;;;;;;4192117;34;20542;-69
2022/02/11 06:24:21;;;;;;;15.38;12.77;;;;;;;;;;4192498;34;20183;-68
2022/02/11 06:26:47;;;;;;;14.55;12.35;;;;;;;;;;4192091;34;20142;-68
2022/02/11 06:29:13;;;;;;;13.75;12.35;;;;;;;;;;4192143;34;20529;-70
2022/02/11 06:31:39;;;;;;;14.40;12.50;;;;;;;;;;4179528;34;20117;-68
2022/02/11 06:34:08;;;;;;;13.23;11.82;;;;;;;;;;4202107;34;20126;-68
2022/02/11 06:36:35;;;;;;;13.95;12.02;;;;;;;;;;4192090;34;20130;-68
2022/02/11 06:39:01;;;;;;;13.80;12.18;;;;;;;;;;4192267;34;20100;-68
2022/02/11 06:41:27;;;;;;;15.13;13.00;;;;;;;;;;4192024;34;20182;-68
2022/02/11 06:43:53;;;;;;;17.58;12.77;;;;;;;;;;4202102;34;20094;-68
2022/02/11 06:46:21;;;;;;;15.77;13.13;;;;;;;;;;4202377;34;20106;-68
2022/02/11 06:48:48;;;;;;;14.90;12.10;;;;;;;;;;4191920;34;20189;-70
2022/02/11 06:51:15;;;;;;;15.45;12.60;;;;;;;;;;4192015;34;20157;-69
2022/02/11 06:53:42;;;;;;;13.55;12.05;;;;;;;;;;4179331;34;20092;-69
2022/02/11 06:56:09;;;;;;;13.77;12.05;;;;;;;;;;4178853;34;20137;-69
2022/02/11 06:58:35;;;;;;;12.77;11.48;;;;;;;;;;4191988;34;20554;-65
2022/02/11 07:01:01;;;;;;;13.38;11.98;;;;;;;;;;4191913;34;20197;-66
2022/02/11 07:03:28;;;;;;;14.45;11.77;;;;;;;;;;4192048;34;20113;-65
2022/02/11 07:05:56;;;;;;;14.38;11.65;;;;;;;;;;4191667;34;20102;-64
2022/02/11 07:08:24;;;;;;;13.48;11.18;;;;;;;;;;4191888;34;20121;-66
2022/02/11 07:10:50;;;;;;;12.82;11.48;;;;;;;;;;4191613;34;20150;-66
2022/02/11 07:13:16;;;;;;;13.57;11.82;;;;;;;;;;4191900;34;20519;-68
2022/02/11 07:15:43;;;;;;;11.50;10.20;;;;;;;;;;4191968;34;20294;-64
2022/02/11 07:18:10;;;;;;;13.60;11.50;;;;;;;;;;4201946;34;20606;-68
2022/02/11 07:20:36;;;;;;;13.40;11.18;;;;;;;;;;4191400;34;20106;-66
2022/02/11 07:23:02;;;;;;;12.60;10.70;;;;;;;;;;4191638;34;20110;-65
2022/02/11 07:25:29;;;;;;;15.05;11.43;;;;;;;;;;4191680;34;20210;-65
2022/02/11 07:27:55;;;;;;;13.32;11.93;;;;;;;;;;4191757;34;20122;-66
2022/02/11 07:30:21;;;;;;;14.02;11.02;;;;;;;;;;4191489;34;20117;-67
2022/02/11 07:32:48;;;;;;;11.90;10.70;;;;;;;;;;4201794;34;20137;-66
2022/02/11 07:35:14;;;;;;;12.77;11.05;;;;;;;;;;4191636;34;20102;-66
2022/02/11 07:37:40;;;;;;;12.73;10.98;;;;;;;;;;4191637;34;20122;-65
2022/02/11 07:40:07;;;;;;;12.95;11.65;;;;;;;;;;4191497;34;20137;-65
2022/02/11 07:42:33;;;;;;;12.10;10.77;;;;;;;;;;4191883;34;20086;-66
2022/02/11 07:44:59;;;;;;;11.75;10.52;;;;;;;;;;4191431;34;20095;-65
2022/02/11 07:47:29;;;;;;;12.02;10.82;;;;;;;;;;4191631;34;20125;-66
2022/02/11 07:49:56;;;;;;;12.75;11.10;;;;;;;;;;4191354;34;20102;-66
2022/02/11 07:52:23;;;;;;;13.07;10.40;;;;;;;;;;4191557;34;20202;-65
2022/02/11 07:54:49;;;;;;;12.80;10.30;;;;;;;;;;4191477;34;20088;-66
2022/02/11 07:57:15;;;;;;;13.30;10.77;;;;;;;;;;4191460;34;20141;-66
2022/02/11 07:59:41;;;;;;;11.35;9.85;;;;;;;;;;4191461;34;20442;-66
2022/02/11 08:02:07;;;;;;;11.77;10.57;;;;;;;;;;4191624;34;20122;-65
2022/02/11 08:04:33;;;;;;;12.52;10.18;;;;;;;;;;4191530;34;20098;-67
2022/02/11 08:06:59;;;;;;;11.52;10.35;;;;;;;;;;4191292;34;20106;-66
2022/02/11 08:09:25;;;;;;;13.10;11.30;;;;;;;;;;4191361;34;20128;-65
2022/02/11 08:11:53;;;;;;;12.43;11.12;;;;;;;;;;4191415;34;20122;-66
2022/02/11 08:14:20;;;;;;;11.77;10.20;;;;;;;;;;4191385;34;20118;-66
2022/02/11 08:16:46;;;;;;;11.80;10.60;;;;;;;;;;4191176;34;20110;-66
2022/02/11 08:19:12;;;;;;;12.27;10.50;;;;;;;;;;4191399;34;20130;-64
2022/02/11 08:21:38;;;;;;;13.35;10.93;;;;;;;;;;4191004;34;20117;-65
2022/02/11 08:24:05;;;;;;;13.20;11.05;;;;;;;;;;4191247;34;20134;-66
2022/02/11 08:26:31;;;;;;;12.18;10.88;;;;;;;;;;4190975;34;20100;-66
2022/02/11 08:28:57;;;;;;;13.10;10.65;;;;;;;;;;4191209;34;20145;-66
2022/02/11 08:31:24;;;;;;;12.70;11.40;;;;;;;;;;4201479;34;20214;-66
2022/02/11 08:33:51;;;;;;;11.32;10.13;;;;;;;;;;4190379;34;20130;-69
2022/02/11 08:36:19;;;;;;;13.02;11.05;;;;;;;;;;4201291;34;20186;-67
2022/02/11 08:38:45;;;;;;;12.13;10.82;;;;;;;;;;4178505;34;20189;-66
2022/02/11 08:41:12;;;;;;;11.65;10.43;;;;;;;;;;4190925;34;20532;-68
2022/02/11 08:43:38;;;;;;;12.00;10.52;;;;;;;;;;4191140;34;20105;-65
2022/02/11 08:46:04;;;;;;;10.98;9.75;;;;;;;;;;4191339;34;20223;-69
2022/02/11 08:48:30;;;;;;;14.07;10.77;;;;;;;;;;4189436;34;20203;-70
2022/02/11 08:50:57;;;;;;;12.65;10.40;;;;;;;;;;4200959;34;20105;-68
2022/02/11 08:53:23;;;;;;;10.95;9.50;;;;;;;;;;4178130;34;20507;-67
2022/02/11 08:55:50;;;;;;;10.90;9.45;;;;;;;;;;4190880;34;20114;-67
2022/02/11 08:58:19;;;;;;;11.73;9.88;;;;;;;;;;4191008;34;20145;-70
2022/02/11 09:00:49;;;;;;;13.32;10.30;;;;;;;;;;4200802;34;20098;-68
2022/02/11 09:03:16;;;;;;;11.32;10.07;;;;;;;;;;4190752;34;20083;-69
2022/02/11 09:05:42;;;;;;;11.55;10.13;;;;;;;;;;4190710;34;20101;-68
2022/02/11 09:08:12;;;;;;;14.30;9.93;;;;;;;;;;4191058;34;20430;-68
2022/02/11 09:10:38;;;;;;;11.27;9.85;;;;;;;;;;4200589;34;20109;-65
2022/02/11 09:13:05;;;;;;;14.73;11.63;;;;;;;;;;4178267;34;20122;-66
2022/02/11 09:15:31;;;;;;;11.75;10.05;;;;;;;;;;4190735;34;20459;-68
2022/02/11 09:17:58;;;;;;;13.60;10.90;;;;;;;;;;4190817;34;20146;-67
2022/02/11 09:20:25;;;;;;;12.68;9.70;;;;;;;;;;4177796;34;20126;-68
2022/02/11 09:22:52;;;;;;;11.30;9.80;;;;;;;;;;4200980;34;20098;-64
2022/02/11 09:25:18;;;;;;;10.88;9.55;;;;;;;;;;4190691;34;20587;-64
2022/02/11 09:27:44;;;;;;;11.30;10.10;;;;;;;;;;4190821;34;20111;-66
2022/02/11 09:30:16;;;;;;;11.18;10.07;;;;;;;;;;4190633;34;20133;-66
2022/02/11 09:32:43;;;;;;;11.90;10.70;;;;;;;;;;4200889;34;20118;-67
2022/02/11 09:35:10;;;;;;;12.18;10.50;;;;;;;;;;4166675;34;20221;-66
2022/02/11 09:37:37;;;;;;;10.48;9.38;;;;;;;;;;4190657;34;20222;-66
2022/02/11 09:40:05;;;;;;;12.05;10.60;;;;;;;;;;4190455;34;20548;-66
2022/02/11 09:42:38;;;;;;;10.73;9.63;;;;;;;;;;4190606;34;20123;-67
2022/02/11 09:45:10;;;;;;;;;;;;;;;;;;4178438;34;20502;-67
2022/02/11 09:47:39;;;;;;;12.57;10.15;;;;;;;;;;4200973;34;20001;-68
2022/02/11 09:50:09;;;;;;;12.90;11.32;;;;;;;;;;4190294;34;20218;-68
2022/02/11 09:52:49;;;;;;;12.18;10.82;;;;;;;;;;4199721;34;20656;-68
2022/02/11 09:55:37;;;;;;;12.60;10.10;;;;;;;;;;4200416;34;20554;-68
2022/02/11 09:58:13;;;;;;;12.65;11.25;;;;;;;;;;4190511;34;20198;-70
2022/02/11 10:00:41;;;;;;;13.93;11.40;;;;;;;;;;4200361;34;20587;-69
2022/02/11 10:03:22;;;;;;;11.63;10.43;;;;;;;;;;4189053;34;20510;-69
2022/02/11 10:05:55;;;;;;;13.62;10.35;;;;;;;;;;4190271;34;20113;-69
2022/02/11 10:08:24;;;;;;;10.15;8.93;;;;;;;;;;4200276;34;20608;-71
2022/02/11 10:16:08;;;;;;;14.20;10.48;;;;;;;;;;4474957;28;20158;-66
2022/02/11 10:18:50;;;;;;;11.32;9.05;;;;;;;;;;4191902;34;20126;-65
2022/02/11 10:21:23;;;;;;;11.02;9.70;;;;;;;;;;4196781;34;20248;-65
2022/02/11 10:23:51;;;;;;;11.93;10.60;;;;;;;;;;4198939;34;20143;-65
2022/02/11 10:26:27;;;;;;;13.02;9.85;;;;;;;;;;4173673;34;20125;-66
2022/02/11 10:33:10;;;;;;;11.52;9.77;;;;;;;;;;4170511;34;20126;-66
2022/02/11 10:36:13;;;;;;;11.20;9.73;;;;;;;;;;4182521;34;20210;-66
2022/02/11 10:40:07;;;;;;;13.23;9.90;;;;;;;;;;4128896;34;20123;-66
2022/02/11 10:44:04;;;;;;;11.50;9.55;;;;;;;;;;4090190;35;20120;-68
2022/02/11 10:52:01;;;;;;;16.80;11.48;;;;;;;;;;4140792;34;20218;-67
2022/02/11 11:01:32;;;;;;;13.70;9.45;;;;;;;;;;4203219;34;20113;-65
2022/02/11 11:04:01;;;;;;;12.18;10.07;;;;;;;;;;4193322;34;20090;-64
2022/02/11 11:06:28;;;;;;;10.40;9.23;;;;;;;;;;4205507;34;20137;-65
2022/02/11 11:09:11;;;;;;;13.75;9.90;;;;;;;;;;4188739;34;20156;-66
2022/02/11 11:13:14;;;;;;;10.30;9.10;;;;;;;;;;4140788;34;20167;-66
2022/02/11 11:17:02;;;;;;;12.13;9.40;;;;;;;;;;4085014;34;20139;-65
2022/02/11 11:20:40;;;;;;;14.32;9.77;;;;;;;;;;4130723;34;20534;-66
2022/02/11 11:24:58;;;;;;;12.80;10.13;;;;;;;;;;4091845;34;20455;-66
2022/02/11 11:36:38;;;;;;;;;;;;;;;;;;;;;
2022/02/11 11:43:21;;;;;;;9.63;8.30;;;;;;;;;;4417344;28;20102;-64
2022/02/11 11:46:51;;;;;;;;;;;;;;;;;;;;;
2022/02/11 11:50:28;;;;;;;11.65;9.32;;;;;;;;;;4133162;34;20564;-65
2022/02/11 11:58:04;;;;;;;9.57;7.93;;;;;;;;;;4195517;34;20106;-65
2022/02/11 12:01:00;;;;;;;8.43;7.28;;;;;;;;;;4194382;34;20113;-65
2022/02/11 12:03:26;;;;;;;8.27;7.27;;;;;;;;;;4204006;34;20110;-62
2022/02/11 12:06:00;;;;;;;8.65;7.85;;;;;;;;;;4193303;34;20648;-63
2022/02/11 12:08:29;;;;;;;8.48;7.50;;;;;;;;;;4190163;34;20102;-63
2022/02/11 12:10:59;;;;;;;7.43;6.70;;;;;;;;;;4189617;34;20132;-63
2022/02/11 12:13:25;;;;;;;9.35;7.70;;;;;;;;;;4194537;34;20098;-62
2022/02/11 12:20:21;;;;;;;7.93;7.10;;;;;;;;;;4159691;34;20118;-62
2022/02/11 12:27:44;;;;;;;8.43;7.05;;;;;;;;;;4151949;34;20122;-68
2022/02/11 12:59:08;;;;;;;9.50;6.87;;;;;;;;;;1186034;28;20411;-65
2022/02/11 13:01:34;;;;;;;7.87;6.90;;;;;;;;;;4212888;33;20104;-67
2022/02/11 13:04:00;;;;;;;8.27;7.43;;;;;;;;;;4224326;33;20120;-67
2022/02/11 13:06:26;;;;;;;9.73;7.30;;;;;;;;;;4217201;34;20125;-66
2022/02/11 13:09:05;;;;;;;10.55;7.95;;;;;;;;;;4225486;33;20289;-66
2022/02/11 13:11:32;;;;;;;10.98;7.53;;;;;;;;;;4231092;33;20104;-66
2022/02/11 13:14:04;;;;;;;9.63;7.40;;;;;;;;;;4231179;33;20224;-65
2022/02/11 13:20:37;;;;;;;;;;;;;;;;;;;;;
2022/02/11 13:32:00;;;;;;;;;;;;;;;;;;;;;
2022/02/11 13:36:00;;;;;;;10.52;7.55;;;;;;;;;;4212182;33;20200;-63
2022/02/11 13:39:52;;;;;;;8.57;7.68;;;;;;;;;;4136126;34;20241;-64
2022/02/11 13:45:57;;;;;;;8.20;7.25;;;;;;;;;;4217461;33;20474;-63
2022/02/11 13:49:51;;;;;;;7.62;6.82;;;;;;;;;;4190274;34;20198;-66
2022/02/11 13:53:02;;;;;;;6.93;6.22;;;;;;;;;;4160118;34;20108;-65
2022/02/11 13:55:30;;;;;;;7.75;6.20;;;;;;;;;;4163382;34;20161;-60
2022/02/11 13:57:56;;;;;;;5.97;5.37;;;;;;;;;;4186348;34;20122;-60
2022/02/11 14:00:26;;;;;;;7.93;6.18;;;;;;;;;;4180783;34;20214;-60
2022/02/11 14:02:52;;;;;;;7.18;5.82;;;;;;;;;;4172723;34;20127;-60
2022/02/11 14:05:19;;;;;;;6.65;5.85;;;;;;;;;;4172816;34;20123;-61
2022/02/11 14:07:52;;;;;;;8.98;6.15;;;;;;;;;;4172763;34;20218;-60
2022/02/11 14:10:18;;;;;;;6.55;5.95;;;;;;;;;;4186140;34;20133;-63
2022/02/11 14:12:44;;;;;;;6.93;5.78;;;;;;;;;;4186429;34;20571;-62
2022/02/11 14:15:44;;;;;;;6.75;6.05;;;;;;;;;;4187039;34;20605;-62
2022/02/11 14:45:21;;;;;;;9.88;8.43;;;;;;;;;;2652571;28;20125;-61
2022/02/11 14:47:47;;;;;;;7.80;6.62;;;;;;;;;;4188999;34;20580;-61
2022/02/11 14:55:14;;;;;;;7.57;6.07;;;;;;;;;;4180790;34;20658;-61
2022/02/11 15:02:06;;;;;;;;;;;;;;;;;;;;;
2022/02/11 15:05:58;;;;;;;7.70;6.45;;;;;;;;;;4135117;34;20253;-61
2022/02/11 15:09:45;;;;;;;11.70;8.48;;;;;;;;;;4123417;34;20111;-62
2022/02/11 15:16:49;;;;;;;9.27;6.95;;;;;;;;;;3825197;37;20122;-60
2022/02/11 15:19:15;;;;;;;7.47;6.78;;;;;;;;;;4397124;32;20194;-62
2022/02/11 15:21:41;;;;;;;8.57;7.00;;;;;;;;;;4403186;32;20121;-62
2022/02/11 15:24:07;;;;;;;7.80;7.00;;;;;;;;;;4388859;32;20108;-62
2022/02/11 15:26:33;;;;;;;7.72;6.62;;;;;;;;;;4388249;32;20121;-63
2022/02/11 15:28:59;;;;;;;7.18;6.43;;;;;;;;;;4387974;32;20121;-63
2022/02/11 15:31:25;;;;;;;8.15;6.37;;;;;;;;;;4375878;32;20687;-63
2022/02/11 15:33:52;;;;;;;7.87;6.37;;;;;;;;;;4386285;32;20102;-62
2022/02/11 15:36:18;;;;;;;6.53;5.82;;;;;;;;;;4385975;32;20133;-62
2022/02/11 15:38:44;;;;;;;8.48;6.70;;;;;;;;;;4386081;32;20564;-62
2022/02/11 16:01:56;;;;;;;8.00;6.10;;;;;;;;;;4672278;27;20130;-63
2022/02/11 16:04:22;;;;;;;9.18;5.75;;;;;;;;;;4326422;33;20374;-60
2022/02/11 16:07:00;;;;;;;7.07;5.87;;;;;;;;;;4337828;32;20474;-62
2022/02/11 16:14:50;;;;;;;9.45;8.00;;;;;;;;;;4191207;34;20114;-71
2022/02/11 16:47:44;;;;;;;5.37;4.85;;;;;;;;;;5182865;27;20163;-67
2022/02/11 16:51:06;;;;;;;5.20;4.70;;;;;;;;;;5105032;28;20506;-67
2022/02/11 17:04:07;;;;;;;4.90;4.40;;;;;;;;;;4998114;28;20718;-68
2022/02/11 17:07:33;;;;;;;5.10;4.18;;;;;;;;;;5073416;27;20440;-65
2022/02/11 17:15:37;;;;;;;5.82;4.00;;;;;;;;;;5165517;27;20228;-64
2022/02/11 17:19:27;;;;;;;4.50;4.10;;;;;;;;;;5179816;27;20495;-66
2022/02/11 17:25:54;;;;;;;4.72;3.72;;;;;;;;;;5169699;27;20611;-72
2022/02/11 17:29:08;;;;;;;;;;;;;;;;;;;;;
2022/02/11 17:57:09;;;;;;;3.95;3.47;;;;;;;;;;5219735;27;20577;-68
2022/02/11 17:59:36;;;;;;;4.68;3.92;;;;;;;;;;5220104;27;20077;-68
2022/02/11 18:02:02;;;;;;;5.37;3.97;;;;;;;;;;5219894;27;20078;-64
2022/02/11 18:04:30;;;;;;;6.15;4.65;;;;;;;;;;5219812;27;20589;-66
2022/02/11 18:06:57;;;;;;;6.68;4.80;;;;;;;;;;5220030;27;20077;-65
2022/02/11 18:09:23;;;;;;;5.05;4.12;;;;;;;;;;5221974;27;20096;-65
2022/02/11 18:11:49;;;;;;;4.85;4.32;;;;;;;;;;5221773;27;20546;-65
2022/02/11 18:14:15;;;;;;;4.43;4.00;;;;;;;;;;5221690;27;20089;-65
2022/02/11 18:16:43;;;;;;;4.90;4.22;;;;;;;;;;5220933;27;20069;-65
2022/02/11 18:19:10;;;;;;;7.37;4.45;;;;;;;;;;5222425;27;20104;-65
2022/02/11 18:21:36;;;;;;;4.70;4.18;;;;;;;;;;5221094;27;20081;-65
2022/02/11 18:24:02;;;;;;;5.55;4.32;;;;;;;;;;5220352;27;20185;-65
2022/02/11 18:26:28;;;;;;;6.05;4.00;;;;;;;;;;5219991;27;20096;-64
2022/02/11 18:28:56;;;;;;;6.32;4.18;;;;;;;;;;5220176;27;20192;-64
2022/02/11 18:31:22;;;;;;;5.18;4.40;;;;;;;;;;5220134;27;20082;-64
2022/02/11 18:33:49;;;;;;;5.40;4.57;;;;;;;;;;5220250;27;20554;-64
2022/02/11 18:36:15;;;;;;;7.35;4.12;;;;;;;;;;5220506;27;20088;-63
2022/02/11 18:38:41;;;;;;;5.18;4.68;;;;;;;;;;5222320;27;20085;-64
2022/02/11 18:41:08;;;;;;;5.85;4.43;;;;;;;;;;5222103;27;20251;-64
2022/02/11 18:43:34;;;;;;;5.87;4.72;;;;;;;;;;5222000;27;20092;-64
2022/02/11 18:46:01;;;;;;;7.20;4.78;;;;;;;;;;5222174;27;20089;-64
2022/02/11 18:48:31;;;;;;;7.00;5.30;;;;;;;;;;5222255;27;20065;-65
2022/02/11 18:50:58;;;;;;;5.78;4.47;;;;;;;;;;5222098;27;20098;-64
2022/02/11 18:53:24;;;;;;;6.68;4.57;;;;;;;;;;5222419;27;20093;-64
2022/02/11 18:55:50;;;;;;;5.68;4.20;;;;;;;;;;5220382;27;20161;-65
2022/02/11 18:58:16;;;;;;;6.53;5.00;;;;;;;;;;5222173;27;20397;-65
2022/02/11 19:00:44;;;;;;;5.72;4.50;;;;;;;;;;5222245;27;20090;-66
2022/02/11 19:03:10;;;;;;;5.03;4.37;;;;;;;;;;5222230;27;20115;-66
2022/02/11 19:05:36;;;;;;;5.45;3.97;;;;;;;;;;5221956;27;20152;-66
2022/02/11 19:08:04;;;;;;;6.05;3.95;;;;;;;;;;5222009;27;20159;-66
2022/02/11 19:10:30;;;;;;;5.05;4.30;;;;;;;;;;5221952;27;20091;-66
2022/02/11 19:12:56;;;;;;;4.47;3.80;;;;;;;;;;5222071;27;20589;-65
2022/02/11 19:15:23;;;;;;;6.00;4.00;;;;;;;;;;5220104;27;20097;-65
2022/02/11 19:17:49;;;;;;;6.03;4.28;;;;;;;;;;5222110;27;20430;-65
2022/02/11 19:20:15;;;;;;;5.05;3.85;;;;;;;;;;5221779;27;20101;-65
2022/02/11 19:22:42;;;;;;;5.30;4.53;;;;;;;;;;5220281;27;20536;-65
2022/02/11 19:25:09;;;;;;;5.60;4.43;;;;;;;;;;5221858;27;20565;-65
2022/02/11 19:27:35;;;;;;;6.37;4.40;;;;;;;;;;5220684;27;20160;-66
2022/02/11 19:30:02;;;;;;;5.47;4.70;;;;;;;;;;5221862;27;20081;-65
2022/02/11 19:32:28;;;;;;;5.50;4.10;;;;;;;;;;5221867;27;20149;-65
2022/02/11 19:34:54;;;;;;;5.60;4.12;;;;;;;;;;5221735;27;20069;-65
2022/02/11 19:37:21;;;;;;;5.50;4.62;;;;;;;;;;5222125;27;20523;-65
2022/02/11 19:39:49;;;;;;;6.57;4.30;;;;;;;;;;5221759;27;20404;-66
2022/02/11 19:42:17;;;;;;;5.05;4.20;;;;;;;;;;5221828;27;20469;-64
2022/02/11 19:44:44;;;;;;;6.55;4.03;;;;;;;;;;5221741;27;20065;-64
2022/02/11 19:47:11;;;;;;;4.68;3.90;;;;;;;;;;5221851;27;20075;-64
2022/02/11 19:49:39;;;;;;;4.32;3.92;;;;;;;;;;5221764;27;20401;-64
2022/02/11 19:52:06;;;;;;;6.28;4.07;;;;;;;;;;5221953;27;20186;-64
2022/02/11 19:54:32;;;;;;;6.25;4.37;;;;;;;;;;5221647;27;20057;-64
2022/02/11 19:56:59;;;;;;;7.60;4.82;;;;;;;;;;5221705;27;20175;-64
2022/02/11 19:59:25;;;;;;;6.75;4.30;;;;;;;;;;5221752;27;20172;-63
2022/02/11 20:01:51;;;;;;;5.15;4.18;;;;;;;;;;5220041;27;20069;-64
2022/02/11 20:04:18;;;;;;;7.30;6.05;;;;;;;;;;5219792;27;20167;-63
2022/02/11 20:06:44;;;;;;;5.28;3.80;;;;;;;;;;5221861;27;20169;-64
2022/02/11 20:09:11;;;;;;;4.65;3.55;;;;;;;;;;5221669;27;20077;-65
2022/02/11 20:11:38;;;;;;;6.60;3.92;;;;;;;;;;5220031;27;20400;-65
2022/02/11 20:14:04;;;;;;;4.78;4.00;;;;;;;;;;5221673;27;20160;-65
2022/02/11 20:16:30;;;;;;;5.45;4.15;;;;;;;;;;5221697;27;20435;-64
2022/02/11 20:18:57;;;;;;;6.62;3.60;;;;;;;;;;5219885;27;20085;-65
2022/02/11 20:21:23;;;;;;;4.05;3.37;;;;;;;;;;5221727;27;20100;-64
2022/02/11 20:23:49;;;;;;;6.30;4.45;;;;;;;;;;5221767;27;20057;-63
2022/02/11 20:26:17;;;;;;;3.87;3.37;;;;;;;;;;5221584;27;20163;-64
2022/02/11 20:28:44;;;;;;;5.25;3.92;;;;;;;;;;5221240;27;20499;-63
2022/02/11 20:31:12;;;;;;;6.10;3.90;;;;;;;;;;5221584;27;20092;-64
2022/02/11 20:33:43;;;;;;;6.82;4.03;;;;;;;;;;5221575;27;20440;-64
2022/02/11 20:36:10;;;;;;;6.68;3.92;;;;;;;;;;5221764;27;20058;-64
2022/02/11 20:38:38;;;;;;;4.45;3.80;;;;;;;;;;5221883;27;20061;-64
2022/02/11 20:41:07;;;;;;;5.90;4.43;;;;;;;;;;5221461;27;20480;-63
2022/02/11 20:43:35;;;;;;;6.22;5.07;;;;;;;;;;5221872;27;20081;-64
2022/02/11 20:46:01;;;;;;;7.47;4.95;;;;;;;;;;5219733;27;20097;-63
2022/02/11 20:48:27;;;;;;;5.62;4.07;;;;;;;;;;5221663;27;20069;-64
2022/02/11 20:50:53;;;;;;;5.50;3.87;;;;;;;;;;5220095;27;20071;-64
2022/02/11 20:53:19;;;;;;;5.40;4.15;;;;;;;;;;5221781;27;20389;-64
2022/02/11 20:55:48;;;;;;;5.30;3.70;;;;;;;;;;5221582;27;20401;-63
2022/02/11 20:58:15;;;;;;;4.72;3.65;;;;;;;;;;5221557;27;20406;-63
2022/02/11 21:00:44;;;;;;;4.75;3.72;;;;;;;;;;5221477;27;20609;-63
2022/02/11 21:03:15;;;;;;;4.45;3.70;;;;;;;;;;5220029;27;20093;-64
2022/02/11 21:05:42;;;;;;;5.80;3.78;;;;;;;;;;5219922;27;20141;-64
2022/02/11 21:08:09;;;;;;;5.15;3.83;;;;;;;;;;5222756;27;20421;-66
2022/02/11 21:10:35;;;;;;;6.60;3.97;;;;;;;;;;5222958;27;20148;-65
2022/02/11 21:13:02;;;;;;;5.47;4.20;;;;;;;;;;5222829;27;20088;-65
2022/02/11 21:15:28;;;;;;;5.47;4.22;;;;;;;;;;5221392;27;20105;-65
2022/02/11 21:17:56;;;;;;;5.05;3.85;;;;;;;;;;5221082;27;20168;-66
2022/02/11 21:20:23;;;;;;;7.95;4.60;;;;;;;;;;5222721;27;20152;-63
2022/02/11 21:22:49;;;;;;;4.82;4.03;;;;;;;;;;5222790;27;20518;-64
2022/02/11 21:25:16;;;;;;;6.03;4.20;;;;;;;;;;5222757;27;20097;-63
2022/02/11 21:27:43;;;;;;;5.85;4.32;;;;;;;;;;5223277;27;20088;-63
2022/02/11 21:30:10;;;;;;;6.22;4.47;;;;;;;;;;5222604;27;20181;-64
2022/02/11 21:32:37;;;;;;;6.37;4.32;;;;;;;;;;5220942;27;20158;-64
2022/02/11 21:35:05;;;;;;;6.97;4.20;;;;;;;;;;5222616;27;20508;-63
2022/02/11 21:37:31;;;;;;;6.28;3.87;;;;;;;;;;5222970;27;20519;-64
2022/02/11 21:39:58;;;;;;;6.03;4.00;;;;;;;;;;5222751;27;20166;-65
2022/02/11 21:42:24;;;;;;;5.90;4.10;;;;;;;;;;5222808;27;20076;-64
2022/02/11 21:44:50;;;;;;;5.53;4.37;;;;;;;;;;5222623;27;20078;-64
2022/02/11 21:47:16;;;;;;;6.18;4.05;;;;;;;;;;5222783;27;20085;-64
2022/02/11 21:49:42;;;;;;;5.87;4.18;;;;;;;;;;5222568;27;20519;-64
2022/02/11 21:52:09;;;;;;;6.07;4.30;;;;;;;;;;5222650;27;20436;-64
2022/02/11 21:54:35;;;;;;;5.45;4.20;;;;;;;;;;5222534;27;20085;-64
2022/02/11 21:57:03;;;;;;;5.80;4.05;;;;;;;;;;5222409;27;20172;-64
2022/02/11 21:59:29;;;;;;;6.28;4.15;;;;;;;;;;5222603;27;20083;-64
2022/02/11 22:01:56;;;;;;;4.87;4.18;;;;;;;;;;5220625;27;20487;-64
2022/02/11 22:04:22;;;;;;;4.95;3.92;;;;;;;;;;5222465;27;20075;-64
2022/02/11 22:06:50;;;;;;;5.78;4.12;;;;;;;;;;5222647;27;20066;-64
2022/02/11 22:09:17;;;;;;;4.93;3.70;;;;;;;;;;5222535;27;20085;-64
2022/02/11 22:11:43;;;;;;;5.87;3.97;;;;;;;;;;5222461;27;20144;-65
2022/02/11 22:14:09;;;;;;;5.40;3.87;;;;;;;;;;5222431;27;20074;-64
2022/02/11 22:16:36;;;;;;;6.40;4.00;;;;;;;;;;5222450;27;20062;-64
2022/02/11 22:19:04;;;;;;;5.45;4.55;;;;;;;;;;5222413;27;20081;-64
2022/02/11 22:21:30;;;;;;;7.60;3.85;;;;;;;;;;5222298;27;20053;-64
2022/02/11 22:23:56;;;;;;;5.72;4.15;;;;;;;;;;5222514;27;20058;-64
2022/02/11 22:26:22;;;;;;;6.15;4.62;;;;;;;;;;5222290;27;20489;-64
2022/02/11 22:28:48;;;;;;;5.43;4.53;;;;;;;;;;5222467;27;20147;-64
2022/02/11 22:31:14;;;;;;;6.22;4.53;;;;;;;;;;5222296;27;20073;-64
2022/02/11 22:33:41;;;;;;;4.90;3.78;;;;;;;;;;5222413;27;20061;-64
2022/02/11 22:36:07;;;;;;;5.85;3.78;;;;;;;;;;5222301;27;20061;-64
2022/02/11 22:38:33;;;;;;;6.85;4.47;;;;;;;;;;5222254;27;20080;-64
2022/02/11 22:40:59;;;;;;;6.35;4.35;;;;;;;;;;5222127;27;20547;-64
2022/02/11 22:43:26;;;;;;;7.72;4.53;;;;;;;;;;5220433;27;20674;-64
2022/02/11 22:45:52;;;;;;;5.80;4.75;;;;;;;;;;5222254;27;20097;-64
2022/02/11 22:48:18;;;;;;;5.85;4.62;;;;;;;;;;5222321;27;20085;-63
2022/02/11 22:53:30;;;;;;;8.13;4.78;;;;;;;;;;5222453;27;20501;-64
2022/02/11 22:55:56;;;;;;;5.12;4.55;;;;;;;;;;5222242;27;20488;-64
2022/02/11 22:58:23;;;;;;;5.10;4.00;;;;;;;;;;5220639;27;20176;-64
2022/02/11 23:00:51;;;;;;;6.00;4.75;;;;;;;;;;5221971;27;20491;-63
2022/02/11 23:03:19;;;;;;;5.22;4.25;;;;;;;;;;5222298;27;20166;-64
2022/02/11 23:06:03;;;;;;;6.45;4.30;;;;;;;;;;5221990;27;20093;-64
2022/02/11 23:11:22;;;;;;;6.60;4.40;;;;;;;;;;5222050;27;20471;-63
2022/02/11 23:13:49;;;;;;;5.50;4.20;;;;;;;;;;5222085;27;20085;-63
2022/02/11 23:16:15;;;;;;;5.78;4.00;;;;;;;;;;5222002;27;20068;-63
2022/02/11 23:18:44;;;;;;;5.20;4.45;;;;;;;;;;5222199;27;20093;-63